DAUL/LOO METAR and TAF weather

Enter ICAO airport designator
Station Type Date Time Source
DAUL METAR 2022/06/27 08:00 UTC NOAA

DAUL 270800Z 08008KT CAVOK 32/M03 Q1015


Station Type Date Time Source
DAUL Decoded METAR 2022/06/27 08:00 UTC NOAA

Laghouat, Algeria (DAUL) 33-46N 002-56E 765M
Jun 27, 2022 - 04:00 AM EDT / 2022.06.27 0800 UTC
Wind: from the E (080 degrees) at 9 MPH (8 KT):0
Visibility: greater than 7 mile(s):0
Temperature: 89 F (32 C)
Dew Point: 26 F (-3 C)
Relative Humidity: 10%
Pressure (altimeter): 29.97 in. Hg (1015 hPa)
ob: DAUL 270800Z 08008KT CAVOK 32/M03 Q1015
cycle: 8

Station Type Date Time Source
DAUL TAF 2017/11/09 18:03 UTC NOAA

TAF DAUL 091700Z 0918/1009 02012KT 9999 SCT030 SCT100 PROB40
TEMPO 0918/0924 35020G30KT 4000 -TSRA FEW030CB

Example: see airport list